Flight Track Log - Related Links

Times and Time Zones

All times are in EDT time to prevent confusion due to time zone crossing. See the N75AW flight status page for this flight to view local times or setup timezone preferences in your user account.

Time Position Orientation Groundspeed Altitude Reporting Facility
EDT Latitude Longitude Course Direction KTS MPH feet Rate Location/Type
Tue 11:03:46 AM 26.0986 -81.6914 354° North 164 189 3,800  Level Miami Center
Tue 11:04:46 AM 26.1283 -81.6742 27° Northeast 203 234 5,800 1,900 Climbing Miami Center
Tue 11:05:46 AM 26.1803 -81.6856 349° North 196 226 7,600 1,850 Climbing Miami Center
Tue 11:06:46 AM 26.2322 -81.6947 351° North 191 220 9,500 1,850 Climbing Miami Center
Tue 11:07:46 AM 26.2819 -81.7058 349° North 191 220 11,300 1,650 Climbing Miami Center
Tue 11:08:00 AM 26.5561 -81.8155 354° North  Level FlightAware Approximate
Tue 11:08:46 AM 26.3358 -81.7175 349° North 185 213 12,800  Level Miami Center
Tue 11:09:46 AM 26.3897 -81.7267 351° North 185 213 14,100 1,400 Climbing Miami Center
Tue 11:10:46 AM 26.4500 -81.7406 348° North 202 232 15,600 1,500 Climbing Miami Center
Tue 11:11:46 AM 26.5122 -81.7503 352° North 207 238 17,100 1,400 Climbing Miami Center
Tue 11:12:46 AM 26.5681 -81.7617 350° North 212 244 18,400 1,300 Climbing Miami Center
Tue 11:13:46 AM 26.6283 -81.7711 352° North 212 244 19,700 1,250 Climbing Miami Center
Tue 11:14:46 AM 26.6864 -81.7831 350° North 212 244 20,900 1,150 Climbing Miami Center
Tue 11:15:46 AM 26.7425 -81.7947 349° North 212 244 22,000 600 Climbing Miami Center
Tue 11:16:46 AM 26.8067 -81.8042 353° North 213 245 22,100 50 Climbing Miami Center
Tue 11:17:46 AM 26.8794 -81.8167 351° North 245 282 22,100  Level Miami Center
Tue 11:18:46 AM 26.9603 -81.8342 349° North 271 312 22,100  Level Miami Center
Tue 11:19:46 AM 27.0392 -81.8444 353° North 291 335 22,100  Level Miami Center
Tue 11:20:46 AM 27.1181 -81.8594 350° North 291 335 22,100  Level Miami Center
Tue 11:21:46 AM 27.1947 -81.8744 350° North 291 335 22,100  Level Miami Center
Tue 11:22:46 AM 27.2672 -81.8894 350° North 286 329 22,100  Level Miami Center
Tue 11:23:46 AM 27.3442 -81.8997 353° North 286 329 22,100  Level Miami Center
Tue 11:24:46 AM 27.4292 -81.9175 349° North 286 329 22,100  Level Miami Center
Tue 11:25:46 AM 27.5078 -81.9328 350° North 286 329 22,100  Level Miami Center
Tue 11:26:46 AM 27.5847 -81.9453 352° North 281 323 22,100  Level Miami Center
Tue 11:28:34 AM 27.7272 -81.9736 350° North 282 325 22,100  Level Jacksonville Center
Tue 11:29:34 AM 27.7983 -81.9847 352° North 282 325 22,100  Level Jacksonville Center
Tue 11:30:34 AM 27.8756 -81.9981 351° North 282 325 22,100  Level Jacksonville Center
Tue 11:31:34 AM 27.9508 -82.0139 349° North 277 319 22,100  Level Jacksonville Center
Tue 11:32:34 AM 28.0261 -82.0439 341° North 277 319 22,100  Level Jacksonville Center
Tue 11:33:34 AM 28.0828 -82.1044 317° Northwest 272 313 22,100  Level Jacksonville Center
Tue 11:34:34 AM 28.1436 -82.1628 320° Northwest 277 319 22,100  Level Jacksonville Center
Tue 11:35:34 AM 28.2067 -82.2167 323° Northwest 283 326 22,100  Level Jacksonville Center
Tue 11:36:34 AM 28.2717 -82.2750 322° Northwest 283 326 22,100  Level Jacksonville Center
Tue 11:37:34 AM 28.3344 -82.3314 322° Northwest 283 326 22,100  Level Jacksonville Center
Tue 11:38:34 AM 28.3953 -82.3875 321° Northwest 283 326 22,100  Level Jacksonville Center
Tue 11:39:34 AM 28.4581 -82.4464 320° Northwest 283 326 22,100  Level Jacksonville Center
Tue 11:40:34 AM 28.5208 -82.5003 323° Northwest 283 326 22,100  Level Jacksonville Center
Tue 11:41:34 AM 28.5836 -82.5569 322° Northwest 283 326 22,100  Level Jacksonville Center
Tue 11:42:34 AM 28.6464 -82.6133 322° Northwest 283 326 22,100  Level Jacksonville Center
Tue 11:43:34 AM 28.7089 -82.6678 323° Northwest 283 326 22,100  Level Jacksonville Center
Tue 11:44:34 AM 28.7675 -82.7267 319° Northwest 283 326 22,100  Level Jacksonville Center
Tue 11:45:34 AM 28.8197 -82.7906 313° West 283 326 22,100  Level Jacksonville Center
Tue 11:46:34 AM 28.8761 -82.8594 313° West 283 326 22,100 -250 Level Jacksonville Center
Tue 11:47:34 AM 28.9306 -82.9258 313° West 288 331 21,600 -650 Descending Jacksonville Center
Tue 11:48:34 AM 28.9867 -83.0017 310° West 298 343 20,800 -700 Descending Jacksonville Center
Tue 11:49:34 AM 29.0514 -83.0683 318° Northwest 298 343 20,200 -550 Descending Jacksonville Center
Tue 11:50:34 AM 29.1181 -83.1278 322° Northwest 303 349 19,700 -550 Descending Jacksonville Center
Tue 11:51:34 AM 29.1847 -83.1853 323° Northwest 303 349 19,100 -600 Descending Jacksonville Center
Tue 11:52:34 AM 29.2536 -83.2425 324° Northwest 303 349 18,500 -500 Descending Jacksonville Center
Tue 11:53:34 AM 29.3222 -83.3022 323° Northwest 303 349 18,100 -300 Descending Jacksonville Center
Tue 11:54:34 AM 29.3847 -83.3597 321° Northwest 297 342 17,900 -750 Descending Jacksonville Center
Tue 11:55:34 AM 29.4553 -83.4150 326° Northwest 297 342 16,600 -1,450 Descending Jacksonville Center
Tue 11:56:34 AM 29.5239 -83.4797 321° Northwest 302 348 15,000 -1,500 Descending Jacksonville Center
Tue 11:57:34 AM 29.5925 -83.5375 324° Northwest 307 353 13,600 -1,300 Descending Jacksonville Center
Tue 11:58:34 AM 29.6592 -83.5928 324° Northwest 302 348 12,400 -1,200 Descending Jacksonville Center
Tue 11:59:34 AM 29.7214 -83.6483 322° Northwest 297 342 11,200 -650 Descending Jacksonville Center
Tue 12:00:34 PM 29.7836 -83.7039 322° Northwest 292 336 11,100 -50 Descending Jacksonville Center
Tue 12:01:34 PM 29.8439 -83.7547 324° Northwest 286 329 11,100  Level Jacksonville Center
Tue 12:02:34 PM 29.9000 -83.8056 322° Northwest 276 318 11,100  Level Jacksonville Center
Tue 12:03:34 PM 29.9603 -83.8517 326° Northwest 265 305 11,100 -550 Level Jacksonville Center
Tue 12:04:34 PM 30.0203 -83.8978 326° Northwest 265 305 10,000 -1,400 Descending Jacksonville Center
Tue 12:05:34 PM 30.0847 -83.9489 326° Northwest 265 305 8,300 -1,550 Descending Jacksonville Center
Tue 12:06:34 PM 30.1469 -83.9950 327° Northwest 271 312 6,900 -1,350 Descending Jacksonville Center
Tue 12:07:34 PM 30.2072 -84.0342 331° Northwest 261 300 5,600 -1,450 Descending Jacksonville Center
Tue 12:08:34 PM 30.2694 -84.0592 341° North 241 277 4,000 -1,250 Descending Jacksonville Center
Tue 12:09:34 PM 30.3256 -84.0886 336° Northwest 231 266 3,100 -900 Descending Jacksonville Center
Tue 12:11:00 PM 30.3558 -84.1999 323° Northwest  Level Estimated
Tue 12:18:00 PM 30.3833 -84.3500 180° South  Level FlightAware Approximate
Tue 12:19:00 PM 30.3967 -84.3509 180° South  Level Estimated
Tue 12:20:00 PM 30.3967 -84.3509 180° South  Level Estimated
Tue 12:21:00 PM 30.3967 -84.3509 180° South  Level Estimated
Tue 12:22:00 PM 30.3967 -84.3509 180° South  Level Estimated
Tue 12:23:00 PM 30.3967 -84.3509 180° South  Level Estimated

Login

Don't have an account? Register now (free) for customized features, flight alerts, and more!